Time;durP1;ratioP1;P1;durP2;ratioP2;P2;SDS_P1;SDS_P2;PMS_P1;PMS_P2;Temp;Humidity;BMP_temperature;BMP_pressure;BME280_temperature;BME280_humidity;BME280_pressure;Samples;Min_cycle;Max_cycle;Signal;HPM_P1;HPM_P2
2023/06/22 00:02:03;;;;;;;;;;;24.60;50.70;;;;;;5100660;28;19934;-58
2023/06/22 00:04:29;;;;;;;;;;;24.60;50.70;;;;;;5111567;28;20010;-59
2023/06/22 00:06:56;;;;;;;;;;;24.60;50.70;;;;;;5101890;28;19973;-58
2023/06/22 00:09:23;;;;;;;;;;;24.60;50.70;;;;;;5101372;28;19927;-60
2023/06/22 00:11:50;;;;;;;;;;;24.60;50.70;;;;;;5101267;28;19920;-57
2023/06/22 00:14:16;;;;;;;;;;;24.60;50.60;;;;;;5093169;28;19932;-59
2023/06/22 00:16:43;;;;;;;;;;;24.60;50.70;;;;;;5071223;28;19920;-60
2023/06/22 00:19:12;;;;;;;;;;;24.60;50.60;;;;;;5047990;28;19931;-59
2023/06/22 00:21:39;;;;;;;;;;;24.60;50.60;;;;;;5050852;28;20390;-59
2023/06/22 00:24:07;;;;;;;;;;;24.60;50.60;;;;;;5055478;28;19921;-54
2023/06/22 00:26:33;;;;;;;;;;;24.60;50.60;;;;;;5077255;28;20023;-58
2023/06/22 00:29:00;;;;;;;;;;;24.60;50.60;;;;;;5073907;28;20097;-57
2023/06/22 00:31:27;;;;;;;;;;;24.60;50.60;;;;;;5060689;28;19920;-60
2023/06/22 00:33:54;;;;;;;;;;;24.60;50.60;;;;;;5062332;28;19931;-59
2023/06/22 00:36:23;;;;;;;;;;;24.60;50.60;;;;;;5059140;28;19924;-59
2023/06/22 00:38:51;;;;;;;;;;;24.60;50.60;;;;;;5061619;28;20244;-58
2023/06/22 00:41:18;;;;;;;;;;;24.60;50.60;;;;;;5058895;28;20067;-58
2023/06/22 00:43:44;;;;;;;;;;;24.60;50.60;;;;;;5079029;28;19931;-59
2023/06/22 00:46:11;;;;;;;;;;;24.60;50.60;;;;;;5060972;28;19924;-58
2023/06/22 00:48:38;;;;;;;;;;;24.60;50.60;;;;;;5075009;28;19927;-59
2023/06/22 00:51:04;;;;;;;;;;;24.60;51.20;;;;;;5053583;28;19932;-58
2023/06/22 00:53:34;;;;;;;;;;;24.60;50.60;;;;;;5060992;28;19924;-59
2023/06/22 00:56:03;;;;;;;;;;;24.60;50.60;;;;;;5063641;28;19928;-58
2023/06/22 00:58:29;;;;;;;;;;;24.60;50.60;;;;;;5066174;28;19920;-59
2023/06/22 01:00:56;;;;;;;;;;;24.60;50.60;;;;;;5055043;28;19924;-59
2023/06/22 01:03:23;;;;;;;;;;;24.60;50.60;;;;;;5075385;28;19920;-59
2023/06/22 01:05:50;;;;;;;;;;;24.60;50.60;;;;;;5054065;28;19981;-60
2023/06/22 01:08:19;;;;;;;;;;;24.60;50.60;;;;;;5071637;28;20274;-60
2023/06/22 01:10:48;;;;;;;;;;;24.60;50.60;;;;;;5056233;28;20325;-57
2023/06/22 01:13:17;;;;;;;;;;;24.60;50.60;;;;;;5058918;28;20347;-59
2023/06/22 01:15:45;;;;;;;;;;;24.60;50.60;;;;;;5085848;28;19985;-58
2023/06/22 01:18:12;;;;;;;;;;;24.60;50.60;;;;;;5097147;28;20007;-57
2023/06/22 01:20:39;;;;;;;;;;;24.60;50.60;;;;;;5098183;28;19927;-58
2023/06/22 01:23:08;;;;;;;;;;;24.60;50.60;;;;;;5094358;28;19932;-58
2023/06/22 01:25:37;;;;;;;;;;;24.60;50.60;;;;;;5095846;28;19927;-59
2023/06/22 01:28:06;;;;;;;;;;;24.60;51.20;;;;;;5092477;28;19923;-59
2023/06/22 01:30:34;;;;;;;;;;;24.60;50.60;;;;;;5090749;28;19921;-58
2023/06/22 01:33:01;;;;;;;;;;;24.60;50.60;;;;;;5094958;28;20404;-59
2023/06/22 01:35:28;;;;;;;;;;;24.60;51.20;;;;;;5101257;28;19920;-58
2023/06/22 01:37:55;;;;;;;;;;;24.60;50.70;;;;;;5097688;28;19920;-59
2023/06/22 01:40:22;;;;;;;;;;;24.60;50.60;;;;;;5094255;28;19924;-58
2023/06/22 01:42:48;;;;;;;;;;;24.60;50.60;;;;;;5095880;28;19924;-59
2023/06/22 01:45:15;;;;;;;;;;;24.60;50.60;;;;;;5095293;28;19920;-59
2023/06/22 01:47:43;;;;;;;;;;;24.60;50.60;;;;;;5094584;28;19932;-59
2023/06/22 01:50:10;;;;;;;;;;;24.60;50.60;;;;;;5090455;28;19966;-57
2023/06/22 01:52:37;;;;;;;;;;;24.60;50.70;;;;;;5097933;28;20007;-59
2023/06/22 01:55:05;;;;;;;;;;;24.60;50.60;;;;;;5097793;28;19947;-60
2023/06/22 01:57:32;;;;;;;;;;;24.60;50.70;;;;;;5098654;28;19931;-59
2023/06/22 02:00:00;;;;;;;;;;;24.60;51.20;;;;;;5112488;28;19946;-60
2023/06/22 02:02:29;;;;;;;;;;;24.60;50.70;;;;;;5099240;28;19920;-58
2023/06/22 02:04:59;;;;;;;;;;;24.60;50.70;;;;;;5099048;28;19920;-58
2023/06/22 02:07:27;;;;;;;;;;;24.60;50.70;;;;;;5101228;28;19924;-59
2023/06/22 02:09:54;;;;;;;;;;;24.60;50.70;;;;;;5094792;28;19920;-60
2023/06/22 02:12:22;;;;;;;;;;;24.60;50.70;;;;;;5088145;28;19924;-58
2023/06/22 02:14:49;;;;;;;;;;;24.60;50.70;;;;;;5105838;28;19920;-59
2023/06/22 02:17:16;;;;;;;;;;;24.60;50.70;;;;;;5113576;28;20011;-59
2023/06/22 02:19:42;;;;;;;;;;;24.60;50.70;;;;;;5096190;28;19924;-58
2023/06/22 02:22:13;;;;;;;;;;;24.60;50.80;;;;;;5110430;28;19973;-59
2023/06/22 02:24:40;;;;;;;;;;;24.60;50.80;;;;;;5099694;28;19920;-55
2023/06/22 02:27:07;;;;;;;;;;;24.60;50.80;;;;;;5091125;28;19923;-58
2023/06/22 02:29:34;;;;;;;;;;;24.60;50.80;;;;;;5093771;28;20433;-59
2023/06/22 02:32:01;;;;;;;;;;;24.60;50.80;;;;;;5091254;28;19973;-59
2023/06/22 02:34:28;;;;;;;;;;;24.60;50.80;;;;;;5091954;28;20378;-60
2023/06/22 02:36:55;;;;;;;;;;;24.60;50.80;;;;;;5090515;28;20358;-58
2023/06/22 02:39:24;;;;;;;;;;;24.60;50.80;;;;;;5100730;28;19961;-58
2023/06/22 02:41:50;;;;;;;;;;;24.60;50.80;;;;;;5110747;28;19977;-59
2023/06/22 02:44:18;;;;;;;;;;;24.60;50.80;;;;;;5095621;28;19920;-59
2023/06/22 02:46:44;;;;;;;;;;;24.60;50.80;;;;;;5095953;28;19920;-59
2023/06/22 02:49:11;;;;;;;;;;;24.60;50.90;;;;;;5093368;28;19919;-59
2023/06/22 02:51:39;;;;;;;;;;;24.60;50.80;;;;;;5101732;28;20247;-58
2023/06/22 02:54:06;;;;;;;;;;;24.60;50.80;;;;;;5100976;28;19920;-58
2023/06/22 02:56:36;;;;;;;;;;;24.60;50.80;;;;;;5096517;28;19973;-58
2023/06/22 02:59:03;;;;;;;;;;;24.60;50.90;;;;;;5105459;28;20254;-58
2023/06/22 03:01:30;;;;;;;;;;;24.50;50.80;;;;;;5099479;28;19946;-59
2023/06/22 03:03:57;;;;;;;;;;;24.60;50.80;;;;;;5096333;28;20380;-59
2023/06/22 03:06:28;;;;;;;;;;;24.50;50.80;;;;;;5093814;28;19970;-57
2023/06/22 03:08:58;;;;;;;;;;;24.60;50.80;;;;;;5097344;28;19967;-58
2023/06/22 03:11:25;;;;;;;;;;;24.50;50.80;;;;;;5092145;28;20358;-58
2023/06/22 03:13:53;;;;;;;;;;;24.50;50.80;;;;;;5097781;28;19963;-59
2023/06/22 03:16:20;;;;;;;;;;;24.50;50.80;;;;;;5077489;28;19968;-60
2023/06/22 03:18:47;;;;;;;;;;;24.50;50.80;;;;;;5056573;28;19924;-60
2023/06/22 03:21:15;;;;;;;;;;;24.60;50.80;;;;;;5074182;28;20009;-58
2023/06/22 03:23:42;;;;;;;;;;;24.60;50.80;;;;;;5059951;28;19924;-59
2023/06/22 03:26:09;;;;;;;;;;;24.50;50.70;;;;;;5078557;28;19920;-59
2023/06/22 03:28:36;;;;;;;;;;;24.50;50.80;;;;;;5077848;28;20420;-58
2023/06/22 03:31:04;;;;;;;;;;;24.60;50.80;;;;;;5096180;28;19920;-60
2023/06/22 03:33:31;;;;;;;;;;;24.60;50.80;;;;;;5059363;28;19998;-59
2023/06/22 03:35:57;;;;;;;;;;;24.60;50.80;;;;;;5062991;28;19959;-57
2023/06/22 03:38:24;;;;;;;;;;;24.60;50.90;;;;;;5059134;28;19924;-58
2023/06/22 03:40:51;;;;;;;;;;;24.60;50.90;;;;;;5059758;28;19924;-58
2023/06/22 03:43:17;;;;;;;;;;;24.50;50.80;;;;;;5057042;28;19990;-58
2023/06/22 03:45:45;;;;;;;;;;;24.50;50.80;;;;;;5060856;28;19935;-56
2023/06/22 03:48:13;;;;;;;;;;;24.60;50.90;;;;;;5057373;28;19970;-58
2023/06/22 03:50:40;;;;;;;;;;;24.50;50.90;;;;;;5057565;28;19925;-58
2023/06/22 03:53:06;;;;;;;;;;;24.60;50.90;;;;;;5060198;28;19921;-59
2023/06/22 03:55:34;;;;;;;;;;;24.50;50.90;;;;;;5064037;28;19923;-58
2023/06/22 03:58:05;;;;;;;;;;;24.60;51.00;;;;;;5059619;28;19920;-58
2023/06/22 04:00:32;;;;;;;;;;;24.60;51.00;;;;;;5058973;28;20252;-58
2023/06/22 04:02:58;;;;;;;;;;;24.60;51.00;;;;;;5058910;28;19920;-58
2023/06/22 04:05:27;;;;;;;;;;;24.60;51.00;;;;;;5063142;28;19932;-58
2023/06/22 04:07:54;;;;;;;;;;;24.50;51.00;;;;;;5070370;28;19977;-57
2023/06/22 04:10:20;;;;;;;;;;;24.60;51.00;;;;;;5063825;28;19924;-59
2023/06/22 04:12:48;;;;;;;;;;;24.60;51.10;;;;;;5070562;28;19920;-58
2023/06/22 04:15:15;;;;;;;;;;;24.60;51.10;;;;;;5073004;28;19932;-59
2023/06/22 04:17:41;;;;;;;;;;;24.50;51.00;;;;;;5062332;28;19978;-57
2023/06/22 04:20:08;;;;;;;;;;;24.50;51.00;;;;;;5062019;28;19920;-59
2023/06/22 04:22:37;;;;;;;;;;;24.60;51.10;;;;;;5063913;28;19920;-57
2023/06/22 04:25:04;;;;;;;;;;;24.60;51.10;;;;;;5078035;28;19927;-58
2023/06/22 04:27:30;;;;;;;;;;;24.60;51.20;;;;;;5058624;28;19932;-58
2023/06/22 04:30:00;;;;;;;;;;;24.50;51.10;;;;;;5074511;28;19961;-60
2023/06/22 04:32:26;;;;;;;;;;;24.50;51.10;;;;;;5062990;28;19999;-57
2023/06/22 04:34:53;;;;;;;;;;;24.50;51.10;;;;;;5061743;28;19967;-58
2023/06/22 04:37:23;;;;;;;;;;;24.50;51.20;;;;;;5061573;28;19928;-59
2023/06/22 04:39:51;;;;;;;;;;;24.60;51.30;;;;;;5058227;28;19986;-58
2023/06/22 04:42:18;;;;;;;;;;;24.60;51.30;;;;;;5060605;28;20401;-58
2023/06/22 04:44:45;;;;;;;;;;;24.60;51.30;;;;;;5079620;28;19924;-59
2023/06/22 04:47:11;;;;;;;;;;;24.50;51.20;;;;;;5061231;28;19932;-59
2023/06/22 04:49:40;;;;;;;;;;;24.50;51.30;;;;;;5057721;28;19924;-58
2023/06/22 04:52:07;;;;;;;;;;;24.60;51.30;;;;;;5059464;28;19920;-60
2023/06/22 04:54:34;;;;;;;;;;;24.60;51.30;;;;;;5074501;28;19920;-59
2023/06/22 04:57:02;;;;;;;;;;;24.60;51.40;;;;;;5063960;28;19929;-60
2023/06/22 04:59:30;;;;;;;;;;;24.50;51.30;;;;;;5081217;28;19924;-59
2023/06/22 05:01:57;;;;;;;;;;;24.50;51.30;;;;;;5079060;28;19927;-59
2023/06/22 05:04:24;;;;;;;;;;;24.60;51.40;;;;;;5074054;28;19931;-60
2023/06/22 05:06:51;;;;;;;;;;;24.60;51.40;;;;;;5066508;28;19966;-59
2023/06/22 05:09:18;;;;;;;;;;;24.60;51.40;;;;;;5059941;28;19924;-58
2023/06/22 05:11:45;;;;;;;;;;;24.60;51.40;;;;;;5060137;28;19920;-59
2023/06/22 05:14:13;;;;;;;;;;;24.50;51.40;;;;;;5061772;28;19950;-59
2023/06/22 05:16:40;;;;;;;;;;;24.60;51.40;;;;;;5057557;28;19970;-59
2023/06/22 05:19:06;;;;;;;;;;;24.50;51.30;;;;;;5053420;28;19962;-59
2023/06/22 05:21:33;;;;;;;;;;;24.50;51.30;;;;;;5072513;28;19978;-59
2023/06/22 05:24:02;;;;;;;;;;;24.50;51.30;;;;;;5056833;28;19924;-58
2023/06/22 05:26:29;;;;;;;;;;;24.60;51.30;;;;;;5074593;28;19924;-58
2023/06/22 05:28:55;;;;;;;;;;;24.60;51.30;;;;;;5076458;28;19983;-58
2023/06/22 05:31:24;;;;;;;;;;;24.50;51.30;;;;;;5060290;28;20016;-59
2023/06/22 05:33:52;;;;;;;;;;;24.50;51.20;;;;;;5058406;28;19926;-59
2023/06/22 05:36:19;;;;;;;;;;;24.60;51.20;;;;;;5054560;28;19970;-59
2023/06/22 05:38:46;;;;;;;;;;;24.60;51.20;;;;;;5069382;28;20007;-59
2023/06/22 05:41:13;;;;;;;;;;;24.60;51.20;;;;;;5085799;28;19924;-60
2023/06/22 05:43:40;;;;;;;;;;;24.60;51.20;;;;;;5060047;28;20011;-58
2023/06/22 05:46:07;;;;;;;;;;;24.50;51.10;;;;;;5060893;28;19971;-57
2023/06/22 05:48:35;;;;;;;;;;;24.50;51.10;;;;;;5055959;28;19928;-58
2023/06/22 05:51:02;;;;;;;;;;;24.60;51.20;;;;;;5058495;28;19924;-57
2023/06/22 05:53:28;;;;;;;;;;;24.50;51.10;;;;;;5056816;28;20350;-58
2023/06/22 05:55:55;;;;;;;;;;;24.50;51.10;;;;;;5055065;28;20003;-58
2023/06/22 05:58:22;;;;;;;;;;;24.60;51.10;;;;;;5056986;28;19970;-59
2023/06/22 06:00:49;;;;;;;;;;;24.50;51.00;;;;;;5057536;28;19920;-58
2023/06/22 06:03:16;;;;;;;;;;;24.50;51.00;;;;;;5073914;28;19920;-59
2023/06/22 06:05:45;;;;;;;;;;;24.60;51.10;;;;;;5053539;28;19921;-59
2023/06/22 06:08:12;;;;;;;;;;;24.50;51.00;;;;;;5063651;28;20015;-59
2023/06/22 06:10:38;;;;;;;;;;;24.50;51.00;;;;;;5078191;28;19928;-58
2023/06/22 06:13:05;;;;;;;;;;;24.50;51.00;;;;;;5060724;28;19970;-60
2023/06/22 06:15:32;;;;;;;;;;;24.50;51.00;;;;;;5084417;28;19920;-59
2023/06/22 06:17:59;;;;;;;;;;;24.50;51.00;;;;;;5091776;28;19930;-58
2023/06/22 06:20:27;;;;;;;;;;;24.50;50.90;;;;;;5101706;28;20402;-60
2023/06/22 06:22:55;;;;;;;;;;;24.50;50.90;;;;;;5099807;28;19924;-59
2023/06/22 06:25:22;;;;;;;;;;;24.60;50.80;;;;;;5102393;28;20426;-61
2023/06/22 06:27:49;;;;;;;;;;;24.50;50.80;;;;;;5093660;28;19923;-60
2023/06/22 06:30:16;;;;;;;;;;;24.50;50.80;;;;;;5100652;28;20315;-60
2023/06/22 06:32:45;;;;;;;;;;;24.60;50.80;;;;;;5098511;28;19931;-59
2023/06/22 06:35:12;;;;;;;;;;;24.50;50.80;;;;;;5101138;28;20315;-61
2023/06/22 06:37:39;;;;;;;;;;;24.50;50.80;;;;;;5105645;28;19923;-60
2023/06/22 06:40:10;;;;;;;;;;;24.60;50.90;;;;;;5108294;27;19924;-60
2023/06/22 06:42:37;;;;;;;;;;;24.60;50.90;;;;;;5111012;28;19945;-60
2023/06/22 06:45:05;;;;;;;;;;;24.60;50.90;;;;;;5103983;28;19920;-60
2023/06/22 06:47:32;;;;;;;;;;;24.60;50.90;;;;;;5093875;28;19950;-57
2023/06/22 06:49:59;;;;;;;;;;;24.60;50.90;;;;;;5102237;28;19919;-61
2023/06/22 06:52:26;;;;;;;;;;;24.60;50.90;;;;;;5098038;28;19977;-61
2023/06/22 06:54:53;;;;;;;;;;;24.60;50.90;;;;;;5096734;28;19919;-59
2023/06/22 06:57:22;;;;;;;;;;;24.60;51.00;;;;;;5096514;28;19970;-60
2023/06/22 06:59:49;;;;;;;;;;;24.60;50.90;;;;;;5100258;28;19973;-60
2023/06/22 07:02:15;;;;;;;;;;;24.60;50.90;;;;;;5100917;28;19969;-61
2023/06/22 07:04:43;;;;;;;;;;;24.60;50.90;;;;;;5097969;28;20026;-62
2023/06/22 07:07:09;;;;;;;;;;;24.60;50.90;;;;;;5095399;28;19963;-58
2023/06/22 07:09:36;;;;;;;;;;;24.60;50.90;;;;;;5090176;28;19928;-62
2023/06/22 07:42:36;;;;;;;;;;;24.70;50.90;;;;;;5061843;28;19908;-59
2023/06/22 07:45:03;;;;;;;;;;;24.70;50.90;;;;;;5065414;28;19932;-61
2023/06/22 07:47:30;;;;;;;;;;;24.70;50.90;;;;;;5059738;28;20525;-60
2023/06/22 07:49:57;;;;;;;;;;;24.70;50.90;;;;;;5076698;28;19947;-63
2023/06/22 07:52:24;;;;;;;;;;;24.70;50.90;;;;;;5060555;28;19924;-61
2023/06/22 07:54:51;;;;;;;;;;;24.70;50.80;;;;;;5063413;28;19960;-60
2023/06/22 07:57:18;;;;;;;;;;;24.70;50.80;;;;;;5060300;28;19920;-62
2023/06/22 07:59:46;;;;;;;;;;;24.70;50.90;;;;;;5059308;28;19954;-60
2023/06/22 08:02:13;;;;;;;;;;;24.70;50.80;;;;;;5077670;28;19955;-59
2023/06/22 08:04:40;;;;;;;;;;;24.70;50.80;;;;;;5074917;28;19920;-60
2023/06/22 08:07:07;;;;;;;;;;;24.70;50.80;;;;;;5057399;28;19986;-61
2023/06/22 08:09:35;;;;;;;;;;;24.80;50.90;;;;;;5077403;28;19954;-61
2023/06/22 08:12:02;;;;;;;;;;;24.70;50.80;;;;;;5076768;28;19920;-61
2023/06/22 08:14:28;;;;;;;;;;;24.80;50.90;;;;;;5076143;28;19920;-61
2023/06/22 08:16:57;;;;;;;;;;;24.80;50.90;;;;;;5056003;28;20021;-59
2023/06/22 08:19:24;;;;;;;;;;;24.80;50.90;;;;;;5058057;28;19925;-60
2023/06/22 08:21:50;;;;;;;;;;;24.80;50.90;;;;;;5076765;28;19924;-62
2023/06/22 08:24:17;;;;;;;;;;;24.80;50.90;;;;;;5077168;28;19969;-62
2023/06/22 08:26:44;;;;;;;;;;;24.80;50.90;;;;;;5074743;28;20259;-60
2023/06/22 08:29:10;;;;;;;;;;;24.80;50.80;;;;;;5056521;28;19928;-60
2023/06/22 08:31:37;;;;;;;;;;;24.80;50.80;;;;;;5058179;28;19924;-61
2023/06/22 08:34:05;;;;;;;;;;;24.80;50.80;;;;;;5060399;28;19943;-61
2023/06/22 08:36:32;;;;;;;;;;;24.80;50.80;;;;;;5061101;28;19924;-59
2023/06/22 08:39:02;;;;;;;;;;;24.90;50.90;;;;;;5054997;28;19921;-58
2023/06/22 08:41:29;;;;;;;;;;;24.80;50.80;;;;;;5056634;28;20260;-61
2023/06/22 08:43:57;;;;;;;;;;;24.80;50.80;;;;;;5059273;28;19981;-58
2023/06/22 08:46:29;;;;;;;;;;;24.80;50.80;;;;;;5060631;28;20019;-61
2023/06/22 08:48:56;;;;;;;;;;;24.80;50.80;;;;;;5081855;28;19929;-60
2023/06/22 08:51:25;;;;;;;;;;;24.80;50.80;;;;;;5063610;28;19932;-61
2023/06/22 08:53:51;;;;;;;;;;;24.80;50.80;;;;;;5062058;28;19931;-60
2023/06/22 08:56:18;;;;;;;;;;;24.80;50.80;;;;;;5060178;28;19966;-62
2023/06/22 08:58:45;;;;;;;;;;;24.90;50.90;;;;;;5077295;28;19926;-56
2023/06/22 09:01:12;;;;;;;;;;;24.90;50.90;;;;;;5079133;28;19970;-61
2023/06/22 09:03:39;;;;;;;;;;;24.90;50.90;;;;;;5064789;28;19974;-59
2023/06/22 09:06:05;;;;;;;;;;;24.90;50.80;;;;;;5062102;28;19966;-59
2023/06/22 09:08:34;;;;;;;;;;;24.90;50.80;;;;;;5059090;28;20029;-60
2023/06/22 09:11:01;;;;;;;;;;;24.90;50.70;;;;;;5060504;28;19986;-60
2023/06/22 09:13:29;;;;;;;;;;;24.90;50.70;;;;;;5060880;28;20079;-62
2023/06/22 09:15:56;;;;;;;;;;;24.90;50.70;;;;;;5078375;28;19932;-62
2023/06/22 09:18:23;;;;;;;;;;;24.90;50.80;;;;;;5076517;28;19925;-61
2023/06/22 09:20:50;;;;;;;;;;;24.90;50.80;;;;;;5061788;28;19971;-61
2023/06/22 09:23:17;;;;;;;;;;;24.90;50.80;;;;;;5067491;28;19991;-62
2023/06/22 09:25:47;;;;;;;;;;;24.90;50.80;;;;;;5068769;28;19927;-60
2023/06/22 09:28:14;;;;;;;;;;;24.90;50.70;;;;;;5058102;28;19920;-60
2023/06/22 09:30:41;;;;;;;;;;;24.90;50.70;;;;;;5059231;28;19920;-61
2023/06/22 09:33:08;;;;;;;;;;;24.90;50.70;;;;;;5075281;28;19920;-61
2023/06/22 09:35:35;;;;;;;;;;;24.90;50.70;;;;;;5064266;28;19927;-60
2023/06/22 09:38:02;;;;;;;;;;;24.90;50.70;;;;;;5077335;28;19925;-59
2023/06/22 09:40:29;;;;;;;;;;;24.90;50.70;;;;;;5071551;28;20406;-60
2023/06/22 09:42:57;;;;;;;;;;;24.90;50.70;;;;;;5067683;28;19946;-60
2023/06/22 09:45:24;;;;;;;;;;;24.90;50.70;;;;;;5082129;28;19924;-61
2023/06/22 09:47:50;;;;;;;;;;;24.90;50.70;;;;;;5072597;28;19920;-61
2023/06/22 09:50:18;;;;;;;;;;;24.90;50.70;;;;;;5057453;28;19924;-62
2023/06/22 09:52:46;;;;;;;;;;;24.90;50.70;;;;;;5089017;28;19963;-59
2023/06/22 09:55:15;;;;;;;;;;;24.90;50.70;;;;;;5068374;28;19985;-60
2023/06/22 09:57:42;;;;;;;;;;;25.00;51.30;;;;;;5081906;28;20011;-60
2023/06/22 10:00:12;;;;;;;;;;;24.90;50.70;;;;;;5055483;28;19924;-59
2023/06/22 10:02:39;;;;;;;;;;;24.90;50.70;;;;;;5079590;28;19920;-59
2023/06/22 10:05:07;;;;;;;;;;;24.90;50.70;;;;;;5070344;28;19920;-54
2023/06/22 10:07:34;;;;;;;;;;;25.00;50.70;;;;;;5060894;28;20023;-58
2023/06/22 10:10:01;;;;;;;;;;;25.00;50.70;;;;;;5078000;28;19924;-55
2023/06/22 10:12:27;;;;;;;;;;;24.90;50.60;;;;;;5071788;28;20037;-58
2023/06/22 10:14:54;;;;;;;;;;;25.00;50.70;;;;;;5071365;28;19923;-59
2023/06/22 10:17:22;;;;;;;;;;;25.00;50.70;;;;;;5097734;28;19953;-59
2023/06/22 10:19:49;;;;;;;;;;;25.00;50.70;;;;;;5098180;28;19977;-60
2023/06/22 10:22:15;;;;;;;;;;;25.00;50.70;;;;;;5101699;28;19920;-55
2023/06/22 10:24:44;;;;;;;;;;;25.00;50.70;;;;;;5096541;28;19920;-59
2023/06/22 10:27:11;;;;;;;;;;;25.00;50.70;;;;;;5095661;28;19958;-58
2023/06/22 10:29:38;;;;;;;;;;;25.00;50.70;;;;;;5101034;28;19927;-59
2023/06/22 10:32:05;;;;;;;;;;;25.00;50.70;;;;;;5100459;28;19919;-59
2023/06/22 10:34:33;;;;;;;;;;;25.00;50.70;;;;;;5100460;28;19924;-58
2023/06/22 10:37:00;;;;;;;;;;;25.00;50.80;;;;;;5106159;28;19927;-59
2023/06/22 10:39:27;;;;;;;;;;;25.00;50.70;;;;;;5097676;28;19920;-59
2023/06/22 10:41:53;;;;;;;;;;;25.00;50.70;;;;;;5099693;28;19931;-59
2023/06/22 10:44:20;;;;;;;;;;;25.10;50.80;;;;;;5099077;28;20006;-60
2023/06/22 10:46:47;;;;;;;;;;;25.00;50.70;;;;;;5096158;28;19920;-61
2023/06/22 10:49:14;;;;;;;;;;;25.00;50.70;;;;;;5094899;28;19920;-62
2023/06/22 10:51:42;;;;;;;;;;;25.00;50.70;;;;;;5093667;28;20308;-59
2023/06/22 10:54:08;;;;;;;;;;;25.00;50.70;;;;;;5098631;28;19923;-59
2023/06/22 10:56:35;;;;;;;;;;;25.00;50.70;;;;;;5095202;28;19920;-59
2023/06/22 10:59:02;;;;;;;;;;;25.10;50.70;;;;;;5097442;28;19927;-61
2023/06/22 11:01:31;;;;;;;;;;;25.00;50.80;;;;;;5098034;28;19924;-61
2023/06/22 11:03:57;;;;;;;;;;;25.00;50.70;;;;;;5096376;28;20381;-60
2023/06/22 11:06:24;;;;;;;;;;;25.00;51.20;;;;;;5099428;28;19940;-61
2023/06/22 11:08:52;;;;;;;;;;;25.10;50.80;;;;;;5097892;28;20353;-60
2023/06/22 11:11:19;;;;;;;;;;;25.10;50.70;;;;;;5099574;28;19970;-60
2023/06/22 11:13:46;;;;;;;;;;;25.10;50.70;;;;;;5097868;28;19924;-58
2023/06/22 11:16:13;;;;;;;;;;;25.10;50.70;;;;;;5106675;28;20254;-58
2023/06/22 11:18:40;;;;;;;;;;;25.10;50.80;;;;;;5105071;28;19959;-61
2023/06/22 11:21:06;;;;;;;;;;;25.10;50.80;;;;;;5094422;28;19966;-58
2023/06/22 11:23:33;;;;;;;;;;;25.10;50.70;;;;;;5092144;28;19920;-60
2023/06/22 11:26:01;;;;;;;;;;;25.10;50.70;;;;;;5098230;28;19932;-59
2023/06/22 11:28:28;;;;;;;;;;;25.10;50.80;;;;;;5101219;28;19927;-61
2023/06/22 11:30:55;;;;;;;;;;;25.10;50.80;;;;;;5098613;28;19969;-57
2023/06/22 11:33:21;;;;;;;;;;;25.10;50.80;;;;;;5095177;28;19924;-62
2023/06/22 11:35:48;;;;;;;;;;;25.10;50.70;;;;;;5100889;28;20270;-61
2023/06/22 11:38:15;;;;;;;;;;;25.10;50.90;;;;;;5093481;28;19920;-59
2023/06/22 11:40:41;;;;;;;;;;;25.10;50.80;;;;;;5100164;28;19924;-59
2023/06/22 11:43:10;;;;;;;;;;;25.20;50.90;;;;;;5093649;28;19924;-60
2023/06/22 11:45:36;;;;;;;;;;;25.10;51.10;;;;;;5096145;28;19974;-60
2023/06/22 11:48:04;;;;;;;;;;;25.10;50.80;;;;;;5099151;28;19920;-61
2023/06/22 11:50:35;;;;;;;;;;;25.20;50.90;;;;;;5101969;28;19924;-60
2023/06/22 11:53:02;;;;;;;;;;;25.10;50.80;;;;;;5098318;28;19924;-61
2023/06/22 11:55:29;;;;;;;;;;;25.20;50.90;;;;;;5102918;28;19920;-61
2023/06/22 11:57:58;;;;;;;;;;;25.20;50.90;;;;;;5100015;28;19919;-61
2023/06/22 12:00:26;;;;;;;;;;;25.20;50.90;;;;;;5096910;28;19920;-58
2023/06/22 12:02:53;;;;;;;;;;;25.20;50.90;;;;;;5104812;28;19927;-60
2023/06/22 12:05:20;;;;;;;;;;;25.20;50.90;;;;;;5099859;28;19924;-63
2023/06/22 12:07:47;;;;;;;;;;;25.20;50.90;;;;;;5097795;28;19962;-62
2023/06/22 12:10:14;;;;;;;;;;;25.20;51.50;;;;;;5096600;28;19920;-62
2023/06/22 12:12:41;;;;;;;;;;;25.20;50.90;;;;;;5094539;28;19924;-60
2023/06/22 12:15:08;;;;;;;;;;;25.20;50.90;;;;;;5097789;28;19920;-61
2023/06/22 12:17:36;;;;;;;;;;;25.20;50.90;;;;;;5096170;28;19924;-65
2023/06/22 12:20:05;;;;;;;;;;;25.20;50.90;;;;;;5094963;28;19935;-63
2023/06/22 12:22:32;;;;;;;;;;;25.20;50.90;;;;;;5093557;28;19920;-61
2023/06/22 12:24:58;;;;;;;;;;;25.30;51.00;;;;;;5100543;28;19924;-61
2023/06/22 12:27:25;;;;;;;;;;;25.20;50.90;;;;;;5097974;28;19932;-61
2023/06/22 12:29:52;;;;;;;;;;;25.30;51.00;;;;;;5094722;28;19925;-60
2023/06/22 12:32:19;;;;;;;;;;;25.20;51.00;;;;;;5093024;28;19970;-62
2023/06/22 12:34:47;;;;;;;;;;;25.30;51.10;;;;;;5097227;28;19920;-60
2023/06/22 12:37:14;;;;;;;;;;;25.30;51.10;;;;;;5091648;28;19919;-59
2023/06/22 12:39:41;;;;;;;;;;;25.30;51.10;;;;;;5093934;28;19949;-59
2023/06/22 12:42:08;;;;;;;;;;;25.30;51.10;;;;;;5090324;28;19927;-56
2023/06/22 12:44:35;;;;;;;;;;;25.30;51.10;;;;;;5095749;28;19927;-61
2023/06/22 12:47:02;;;;;;;;;;;25.30;51.10;;;;;;5107525;27;19932;-60
2023/06/22 12:49:29;;;;;;;;;;;25.30;51.10;;;;;;5097161;28;20037;-59
2023/06/22 12:51:57;;;;;;;;;;;25.30;51.10;;;;;;5096605;28;20303;-58
2023/06/22 12:54:23;;;;;;;;;;;25.30;51.20;;;;;;5094012;28;19931;-59
2023/06/22 12:56:50;;;;;;;;;;;25.30;51.20;;;;;;5094574;28;20433;-60
2023/06/22 12:59:18;;;;;;;;;;;25.30;51.10;;;;;;5097197;28;19919;-60
2023/06/22 13:01:45;;;;;;;;;;;25.30;51.10;;;;;;5093945;28;19926;-60
2023/06/22 13:04:14;;;;;;;;;;;25.30;51.10;;;;;;5095523;28;20381;-59
2023/06/22 13:06:41;;;;;;;;;;;25.30;51.10;;;;;;5095875;28;19923;-61
2023/06/22 13:09:10;;;;;;;;;;;25.30;51.20;;;;;;5094391;28;19920;-59
2023/06/22 13:11:36;;;;;;;;;;;25.30;51.10;;;;;;5094734;28;20310;-62
2023/06/22 13:14:03;;;;;;;;;;;25.30;51.20;;;;;;5100496;28;20410;-60
2023/06/22 13:16:30;;;;;;;;;;;25.30;51.20;;;;;;5065491;28;19928;-59
2023/06/22 13:18:57;;;;;;;;;;;25.30;51.20;;;;;;5062688;28;19974;-59
2023/06/22 13:21:24;;;;;;;;;;;25.30;51.20;;;;;;5067477;28;19920;-60
2023/06/22 13:23:51;;;;;;;;;;;25.40;51.20;;;;;;5058696;28;20424;-57
2023/06/22 13:26:19;;;;;;;;;;;25.30;51.20;;;;;;5056085;28;19970;-60
2023/06/22 13:28:46;;;;;;;;;;;25.40;51.20;;;;;;5051472;28;19924;-58
2023/06/22 13:31:13;;;;;;;;;;;25.30;51.20;;;;;;5059525;28;19928;-59
2023/06/22 13:33:40;;;;;;;;;;;25.30;51.20;;;;;;5058890;28;19920;-59
2023/06/22 13:36:07;;;;;;;;;;;25.40;51.30;;;;;;5079526;28;19989;-60
2023/06/22 13:38:38;;;;;;;;;;;25.40;51.30;;;;;;5070992;28;19925;-59
2023/06/22 13:41:04;;;;;;;;;;;25.40;51.30;;;;;;5081446;28;20015;-59
2023/06/22 13:43:33;;;;;;;;;;;25.40;51.30;;;;;;5058258;28;19931;-58
2023/06/22 13:45:59;;;;;;;;;;;25.40;51.30;;;;;;5059078;28;20359;-57
2023/06/22 13:48:28;;;;;;;;;;;25.40;51.20;;;;;;5060730;28;19932;-58
2023/06/22 13:50:55;;;;;;;;;;;25.40;51.20;;;;;;5055312;28;19928;-56
2023/06/22 13:53:22;;;;;;;;;;;25.40;51.30;;;;;;5082335;28;19927;-57
2023/06/22 13:55:48;;;;;;;;;;;25.40;51.30;;;;;;5058998;28;19921;-58
2023/06/22 13:58:15;;;;;;;;;;;25.40;51.20;;;;;;5071647;28;19931;-59
2023/06/22 14:00:44;;;;;;;;;;;25.40;51.30;;;;;;5056091;28;19951;-57
2023/06/22 14:03:11;;;;;;;;;;;25.40;51.30;;;;;;5074489;28;19924;-57
2023/06/22 14:05:38;;;;;;;;;;;25.40;51.30;;;;;;5075940;28;20354;-57
2023/06/22 14:08:05;;;;;;;;;;;25.40;51.30;;;;;;5057930;28;19928;-60
2023/06/22 14:10:32;;;;;;;;;;;25.40;51.30;;;;;;5078207;28;19970;-58
2023/06/22 14:12:59;;;;;;;;;;;25.40;51.40;;;;;;5070222;28;19920;-53
2023/06/22 14:15:26;;;;;;;;;;;25.40;51.30;;;;;;5079090;28;19924;-57
2023/06/22 14:17:54;;;;;;;;;;;25.40;51.40;;;;;;5071518;28;19920;-57
2023/06/22 14:20:21;;;;;;;;;;;25.40;51.30;;;;;;5074335;28;19974;-58
2023/06/22 14:22:48;;;;;;;;;;;25.40;51.30;;;;;;5058451;28;19950;-59
2023/06/22 14:25:15;;;;;;;;;;;25.40;51.30;;;;;;5053747;28;19928;-59
2023/06/22 14:27:42;;;;;;;;;;;25.40;51.30;;;;;;5076871;28;19925;-59
2023/06/22 14:30:09;;;;;;;;;;;25.40;51.30;;;;;;5076073;28;19981;-59
2023/06/22 14:32:35;;;;;;;;;;;25.40;51.40;;;;;;5080621;28;19920;-59
2023/06/22 14:35:04;;;;;;;;;;;25.40;51.40;;;;;;5059878;28;19920;-59
2023/06/22 14:37:31;;;;;;;;;;;25.40;51.40;;;;;;5078787;28;19924;-60
2023/06/22 14:39:59;;;;;;;;;;;25.40;51.40;;;;;;5064326;28;20022;-60
2023/06/22 14:42:26;;;;;;;;;;;25.40;51.50;;;;;;5072192;28;20366;-59
2023/06/22 14:44:53;;;;;;;;;;;25.40;51.60;;;;;;5076520;28;20011;-59
2023/06/22 14:47:20;;;;;;;;;;;25.40;51.60;;;;;;5059102;28;19924;-60